Time;durP1;ratioP1;P1;durP2;ratioP2;P2;SDS_P1;SDS_P2;PMS_P1;PMS_P2;Temp;Humidity;BMP_temperature;BMP_pressure;BME280_temperature;BME280_humidity;BME280_pressure;Samples;Min_cycle;Max_cycle;Signal;HPM_P1;HPM_P2
2020/12/07 00:02:19;;;;;;;56.73;34.63;;;;;;;-144.99;100.00;52521.47;5075130;28;20738;-72
2020/12/07 00:04:45;;;;;;;44.17;27.63;;;;;;;-144.99;100.00;52488.84;5073132;28;20665;-72
2020/12/07 00:07:11;;;;;;;47.03;25.67;;;;;;;-144.99;100.00;52509.25;5072465;28;21097;-72
2020/12/07 00:09:38;;;;;;;29.87;23.23;;;;;;;-144.99;100.00;52439.94;5075717;28;21061;-73
2020/12/07 00:12:05;;;;;;;34.63;24.70;;;;;;;-144.99;100.00;52480.72;5075541;28;20658;-72
2020/12/07 00:14:31;;;;;;;41.43;26.10;;;;;;;-144.99;100.00;52499.06;5067321;28;20668;-72
2020/12/07 00:16:57;;;;;;;42.77;28.07;;;;;;;-144.99;100.00;52509.25;5068051;28;20796;-72
2020/12/07 00:19:23;;;;;;;43.93;28.37;;;;;;;-144.99;100.00;52509.25;5067378;28;21215;-72
2020/12/07 00:21:49;;;;;;;50.50;28.60;;;;;;;-144.99;100.00;52484.78;5065533;28;20729;-72
2020/12/07 00:24:15;;;;;;;38.33;28.93;;;;;;;-144.99;100.00;52497.00;5066463;28;21309;-73
2020/12/07 00:26:43;;;;;;;41.47;29.60;;;;;;;-144.99;100.00;52525.56;5067973;28;21270;-71
2020/12/07 00:29:10;;;;;;;32.23;26.23;;;;;;;-144.99;100.00;52480.72;5071390;28;20623;-72
2020/12/07 00:31:36;;;;;;;44.50;31.40;;;;;;;-144.99;100.00;52492.94;4724167;28;10000315;-72
2020/12/07 00:34:02;;;;;;;52.90;29.73;;;;;;;-144.99;100.00;52503.13;5080726;28;20217;-72
2020/12/07 00:36:29;;;;;;;39.23;27.87;;;;;;;-144.99;100.00;52511.28;5070926;28;20659;-73
2020/12/07 00:38:55;;;;;;;51.90;30.90;;;;;;;-144.99;100.00;52513.31;5069690;28;20654;-73
2020/12/07 00:41:22;;;;;;;39.87;28.07;;;;;;;-144.99;100.00;52488.84;5070963;28;20714;-72
2020/12/07 00:43:49;;;;;;;43.60;29.07;;;;;;;-144.99;100.00;52484.78;5071156;28;20739;-72
2020/12/07 00:46:16;;;;;;;60.97;29.63;;;;;;;-144.99;100.00;52505.16;5077833;28;20679;-71
2020/12/07 00:48:42;;;;;;;39.73;30.00;;;;;;;-144.99;100.00;52554.09;5084996;28;20623;-72
2020/12/07 00:51:09;;;;;;;45.70;28.90;;;;;;;-144.99;100.00;52492.94;5072322;28;20668;-71
2020/12/07 00:53:35;;;;;;;46.63;28.00;;;;;;;-144.99;100.00;52513.31;5081066;28;20673;-71
2020/12/07 00:56:02;;;;;;;45.17;31.03;;;;;;;-144.99;100.00;52525.56;5079759;28;20714;-72
2020/12/07 00:58:28;;;;;;;42.77;28.40;;;;;;;-144.99;100.00;52497.00;5075165;28;20643;-70
2020/12/07 01:00:54;;;;;;;39.07;28.10;;;;;;;-144.99;100.00;52505.16;5074873;28;20717;-72
2020/12/07 01:03:21;;;;;;;43.53;28.23;;;;;;;-144.99;100.00;52501.09;5082054;28;20742;-73
2020/12/07 01:05:48;;;;;;;35.70;26.27;;;;;;;-144.99;100.00;52517.41;5077748;28;21216;-73
2020/12/07 01:08:14;;;;;;;37.33;25.73;;;;;;;-144.99;100.00;52468.47;5092071;28;20642;-73
2020/12/07 01:10:40;;;;;;;32.97;23.73;;;;;;;-144.99;100.00;52505.16;5079690;28;20638;-73
2020/12/07 01:13:06;;;;;;;29.93;22.87;;;;;;;-144.99;100.00;52505.16;5095698;28;20615;-73
2020/12/07 01:15:32;;;;;;;32.43;22.03;;;;;;;-144.99;100.00;52501.09;5095058;28;20688;-73
2020/12/07 01:17:58;;;;;;;33.97;22.40;;;;;;;-144.99;100.00;52464.41;5096514;28;20623;-73
2020/12/07 01:20:25;;;;;;;40.47;26.53;;;;;;;-144.99;100.00;52501.09;5092431;28;20675;-73
2020/12/07 01:22:51;;;;;;;39.37;26.30;;;;;;;-144.99;100.00;52509.25;5087986;28;21076;-74
2020/12/07 01:25:18;;;;;;;40.90;22.70;;;;;;;-144.99;100.00;52509.25;5066384;28;20610;-73
2020/12/07 01:27:45;;;;;;;35.80;21.97;;;;;;;-144.99;100.00;52501.09;5076125;28;21231;-72
2020/12/07 01:30:11;;;;;;;30.87;23.93;;;;;;;-144.99;100.00;52472.56;5079984;28;20654;-73
2020/12/07 01:32:37;;;;;;;29.30;20.87;;;;;;;-144.99;100.00;52497.00;5078409;28;20619;-73
2020/12/07 01:35:03;;;;;;;34.83;26.60;;;;;;;-144.99;100.00;52503.13;5076707;28;20651;-72
2020/12/07 01:37:30;;;;;;;35.27;23.70;;;;;;;-144.99;100.00;52501.09;5078606;28;20618;-72
2020/12/07 01:39:56;;;;;;;42.63;25.33;;;;;;;-144.99;100.00;52492.94;5080854;28;20725;-72
2020/12/07 01:42:22;;;;;;;33.87;25.30;;;;;;;-144.99;100.00;52488.84;5074958;28;20709;-71
2020/12/07 01:44:48;;;;;;;43.63;28.50;;;;;;;-144.99;100.00;52505.16;5076413;28;21231;-71
2020/12/07 01:47:21;;;;;;;45.03;28.67;;;;;;;-144.99;100.00;52486.81;5080597;28;20719;-71
2020/12/07 01:49:49;;;;;;;39.53;29.03;;;;;;;-144.99;100.00;52482.75;5076090;28;20630;-71
2020/12/07 01:52:15;;;;;;;33.33;22.07;;;;;;;-144.99;100.00;52511.28;5079418;28;21019;-71
2020/12/07 01:54:43;;;;;;;27.57;22.27;;;;;;;-144.99;100.00;52505.16;5072956;28;20672;-71
2020/12/07 01:57:09;;;;;;;33.57;23.23;;;;;;;-144.99;100.00;52435.88;5080680;28;20745;-72
2020/12/07 01:59:35;;;;;;;36.57;25.30;;;;;;;-144.99;100.00;52484.78;5072223;28;20729;-71
2020/12/07 02:02:01;;;;;;;32.30;22.17;;;;;;;-144.99;100.00;52497.00;5078287;28;20684;-71
2020/12/07 02:04:28;;;;;;;32.83;22.87;;;;;;;-144.99;100.00;52476.63;5075309;28;21259;-72
2020/12/07 02:06:54;;;;;;;43.73;25.80;;;;;;;-144.99;100.00;52529.63;5074596;28;20678;-71
2020/12/07 02:09:25;;;;;;;30.27;21.80;;;;;;;-144.99;100.00;52484.78;5079683;28;21159;-72
2020/12/07 02:11:52;;;;;;;28.77;23.83;;;;;;;-144.99;100.00;52488.84;5068059;28;20629;-72
2020/12/07 02:14:18;;;;;;;28.43;23.03;;;;;;;-144.99;100.00;52562.25;5079572;28;20699;-71
2020/12/07 02:16:45;;;;;;;35.23;23.33;;;;;;;-144.99;100.00;52492.94;5094637;28;20642;-72
2020/12/07 02:19:11;;;;;;;31.40;20.47;;;;;;;-144.99;100.00;52499.06;5084448;28;20645;-73
2020/12/07 02:21:38;;;;;;;33.60;23.30;;;;;;;-144.99;100.00;52486.81;5084350;28;20625;-73
2020/12/07 02:24:04;;;;;;;34.87;22.17;;;;;;;-144.99;100.00;52503.13;5073582;28;20669;-72
2020/12/07 02:26:30;;;;;;;36.40;26.20;;;;;;;-144.99;100.00;52480.72;5081615;28;20671;-73
2020/12/07 02:28:56;;;;;;;25.17;18.97;;;;;;;-144.99;100.00;52482.75;5083753;28;20717;-73
2020/12/07 02:31:22;;;;;;;31.53;22.23;;;;;;;-144.99;100.00;52501.09;5074358;28;21175;-73
2020/12/07 02:33:48;;;;;;;26.23;20.93;;;;;;;-144.99;100.00;52505.16;5074290;28;20646;-73
2020/12/07 02:36:15;;;;;;;34.23;22.17;;;;;;;-144.99;100.00;52505.16;5082652;28;20951;-73
2020/12/07 02:38:42;;;;;;;34.13;23.40;;;;;;;-144.99;100.00;52464.41;5084472;28;20725;-73
2020/12/07 02:41:08;;;;;;;45.77;25.70;;;;;;;-144.99;100.00;52466.44;5078631;28;20729;-73
2020/12/07 02:43:34;;;;;;;32.17;23.50;;;;;;;-144.99;100.00;52482.75;5081798;28;20745;-73
2020/12/07 02:46:00;;;;;;;39.60;28.13;;;;;;;-144.99;100.00;52486.81;5079270;28;21137;-73
2020/12/07 02:48:26;;;;;;;39.53;24.73;;;;;;;-144.99;100.00;52450.13;5089854;28;20219;-73
2020/12/07 02:50:52;;;;;;;34.50;23.60;;;;;;;-144.99;100.00;52505.16;5092614;28;20629;-72
2020/12/07 02:53:18;;;;;;;27.37;20.23;;;;;;;-144.99;100.00;52480.72;5084081;28;20274;-73
2020/12/07 02:58:17;;;;;;;30.83;22.13;;;;;;;-144.99;100.00;52484.78;5040021;28;20214;-66
2020/12/07 03:00:43;;;;;;;33.33;22.93;;;;;;;-144.99;100.00;52497.00;5052528;28;20958;-66
2020/12/07 03:03:09;;;;;;;31.97;21.83;;;;;;;-144.99;100.00;52486.81;5054963;28;21307;-66
2020/12/07 03:05:35;;;;;;;31.67;20.73;;;;;;;-144.99;100.00;52513.31;5058244;28;20194;-66
2020/12/07 03:08:01;;;;;;;35.67;23.57;;;;;;;-144.99;100.00;52501.09;5055365;28;21251;-66
2020/12/07 03:10:27;;;;;;;27.20;20.97;;;;;;;-144.99;100.00;52521.47;5057906;28;20647;-66
2020/12/07 03:12:53;;;;;;;23.20;18.80;;;;;;;-144.99;100.00;52497.00;5057056;28;20215;-66
2020/12/07 03:15:20;;;;;;;23.73;18.30;;;;;;;-144.99;100.00;52509.25;5058851;28;20630;-66
2020/12/07 03:17:46;;;;;;;28.57;20.80;;;;;;;-144.99;100.00;52490.91;5062458;28;20683;-65
2020/12/07 03:20:12;;;;;;;29.23;18.73;;;;;;;-144.99;100.00;52446.06;5055767;28;20710;-66
2020/12/07 03:22:39;;;;;;;23.47;18.83;;;;;;;-144.99;100.00;52513.31;5057040;28;20198;-66
2020/12/07 03:25:05;;;;;;;21.67;16.80;;;;;;;-144.99;100.00;52499.06;5057481;28;20240;-66
2020/12/07 03:27:31;;;;;;;23.73;17.20;;;;;;;-144.99;100.00;52533.69;5057152;28;20249;-66
2020/12/07 03:29:57;;;;;;;23.00;17.33;;;;;;;-144.99;100.00;52484.78;5057970;28;20209;-66
2020/12/07 03:32:24;;;;;;;25.33;18.53;;;;;;;-144.99;100.00;52501.09;5054537;28;20670;-66
2020/12/07 03:34:50;;;;;;;28.50;17.70;;;;;;;-144.99;100.00;52525.56;5056055;28;20226;-65
2020/12/07 03:37:16;;;;;;;38.97;26.43;;;;;;;-144.99;100.00;52476.63;5057714;28;20327;-65
2020/12/07 03:39:42;;;;;;;26.43;18.63;;;;;;;-144.99;100.00;52494.97;5061369;28;20710;-65
2020/12/07 03:42:08;;;;;;;22.20;16.87;;;;;;;-144.99;100.00;52517.41;5051083;28;20294;-66
2020/12/07 03:44:34;;;;;;;25.93;18.13;;;;;;;-144.99;100.00;52505.16;5054099;28;20652;-66
2020/12/07 03:47:01;;;;;;;26.77;19.70;;;;;;;-144.99;100.00;52464.41;5060002;28;20279;-66
2020/12/07 03:49:28;;;;;;;24.87;17.57;;;;;;;-144.99;100.00;52497.00;5058388;28;20193;-66
2020/12/07 03:51:54;;;;;;;22.93;16.40;;;;;;;-144.99;100.00;52501.09;5056488;28;20698;-66
2020/12/07 03:54:20;;;;;;;26.00;20.30;;;;;;;-144.99;100.00;52529.63;5054540;28;20217;-65
2020/12/07 03:56:46;;;;;;;24.50;18.27;;;;;;;-144.99;100.00;52494.97;5057629;28;20313;-66
2020/12/07 03:59:12;;;;;;;32.67;21.73;;;;;;;-144.99;100.00;52488.84;5053031;28;20288;-67
2020/12/07 04:01:38;;;;;;;21.03;16.23;;;;;;;-144.99;100.00;52468.47;5055693;28;20221;-66
2020/12/07 04:04:07;;;;;;;22.03;16.27;;;;;;;-144.99;100.00;52480.72;5057213;28;20257;-66
2020/12/07 04:06:37;;;;;;;22.13;16.37;;;;;;;-144.99;100.00;52501.09;5056107;28;20222;-66
2020/12/07 04:09:03;;;;;;;21.73;15.57;;;;;;;-144.99;100.00;52480.72;5056789;28;20686;-66
2020/12/07 04:11:29;;;;;;;23.70;16.13;;;;;;;-144.99;100.00;52456.25;5052409;28;20368;-67
2020/12/07 04:13:56;;;;;;;25.63;17.23;;;;;;;-144.99;100.00;52501.09;5057327;28;20193;-68
2020/12/07 04:16:26;;;;;;;21.20;18.27;;;;;;;-144.99;100.00;52484.78;5061874;28;20248;-66
2020/12/07 04:18:52;;;;;;;22.87;17.73;;;;;;;-144.99;100.00;52472.56;5050550;28;20201;-66
2020/12/07 04:21:18;;;;;;;30.27;20.07;;;;;;;-144.99;100.00;52458.28;5058912;28;20224;-67
2020/12/07 04:23:45;;;;;;;26.90;16.93;;;;;;;-144.99;100.00;52486.81;5049819;28;20299;-67
2020/12/07 04:26:11;;;;;;;26.77;21.30;;;;;;;-144.99;100.00;52521.47;5055823;28;20230;-67
2020/12/07 04:28:37;;;;;;;25.73;16.43;;;;;;;-144.99;100.00;52505.16;5056992;28;20231;-67
2020/12/07 04:31:04;;;;;;;26.03;17.97;;;;;;;-144.99;100.00;52480.72;5053088;28;20193;-67
2020/12/07 04:33:30;;;;;;;20.57;16.00;;;;;;;-144.99;100.00;52425.66;5050475;28;20285;-67
2020/12/07 04:35:56;;;;;;;19.20;13.50;;;;;;;-144.99;100.00;52484.78;5056839;28;20202;-67
2020/12/07 04:38:22;;;;;;;25.10;15.70;;;;;;;-144.99;100.00;52501.09;5061122;28;20280;-66
2020/12/07 04:40:49;;;;;;;28.43;19.40;;;;;;;-144.99;100.00;52470.50;5052173;28;20285;-67
2020/12/07 04:43:17;;;;;;;24.03;17.37;;;;;;;-144.99;100.00;52545.94;5057041;28;20220;-66
2020/12/07 04:45:43;;;;;;;21.03;15.80;;;;;;;-144.99;100.00;52501.09;5053174;28;20297;-66
2020/12/07 04:48:11;;;;;;;25.43;17.93;;;;;;;-144.99;100.00;52517.41;5063644;28;20229;-67
2020/12/07 04:50:38;;;;;;;20.03;15.23;;;;;;;-144.99;100.00;52476.63;5052644;28;20281;-68
2020/12/07 04:53:05;;;;;;;20.67;12.70;;;;;;;-144.99;100.00;52499.06;5057596;28;20209;-66
2020/12/07 04:55:31;;;;;;;20.47;16.33;;;;;;;-144.99;100.00;52464.41;5056267;28;20309;-67
2020/12/07 04:57:58;;;;;;;19.80;14.03;;;;;;;-144.99;100.00;52472.56;5055037;28;20678;-67
2020/12/07 05:00:25;;;;;;;16.83;12.40;;;;;;;-144.99;100.00;52484.78;5053044;28;20647;-67
2020/12/07 05:02:54;;;;;;;17.63;13.60;;;;;;;-144.99;100.00;52476.63;5052604;28;20294;-67
2020/12/07 05:05:21;;;;;;;26.07;15.87;;;;;;;-144.99;100.00;52476.63;5056214;28;20243;-67
2020/12/07 05:07:49;;;;;;;16.63;14.63;;;;;;;-144.99;100.00;52497.00;5052356;28;20229;-68
2020/12/07 05:10:20;;;;;;;17.40;13.63;;;;;;;-144.99;100.00;52509.25;5058832;28;20197;-65
2020/12/07 05:12:50;;;;;;;19.63;14.27;;;;;;;-144.99;100.00;52466.44;5057177;28;20215;-68
2020/12/07 05:15:19;;;;;;;22.40;13.70;;;;;;;-144.99;100.00;52456.25;5056948;28;20208;-66
2020/12/07 05:17:46;;;;;;;18.47;14.50;;;;;;;-144.99;100.00;52464.41;5060607;28;20213;-66
2020/12/07 05:20:14;;;;;;;23.00;15.00;;;;;;;-144.99;100.00;52484.78;5054111;28;20242;-67
2020/12/07 05:22:40;;;;;;;20.03;14.20;;;;;;;-144.99;100.00;52537.78;5055400;28;20284;-66
2020/12/07 05:25:07;;;;;;;20.63;14.70;;;;;;;-144.99;100.00;52460.31;5049995;28;20323;-66
2020/12/07 05:27:35;;;;;;;20.03;15.40;;;;;;;-144.99;100.00;52478.66;5055353;28;20301;-66
2020/12/07 05:30:09;;;;;;;22.57;14.93;;;;;;;-144.99;100.00;52509.25;5056869;28;20304;-66
2020/12/07 05:32:38;;;;;;;17.03;12.97;;;;;;;-144.99;100.00;52517.41;5051704;28;20211;-66
2020/12/07 05:35:06;;;;;;;19.97;14.27;;;;;;;-144.99;100.00;52505.16;5056189;28;20243;-66
2020/12/07 05:37:32;;;;;;;18.63;12.03;;;;;;;-144.99;100.00;52448.09;5056412;28;20227;-66
2020/12/07 05:40:01;;;;;;;19.37;14.23;;;;;;;-144.99;100.00;52480.72;5058413;28;20664;-65
2020/12/07 05:42:28;;;;;;;18.13;13.57;;;;;;;-144.99;100.00;52480.72;5047160;28;20196;-67
2020/12/07 05:44:56;;;;;;;18.17;12.07;;;;;;;-144.99;100.00;52464.41;5053428;28;20635;-67
2020/12/07 05:47:23;;;;;;;21.47;12.57;;;;;;;-144.99;100.00;52476.63;5061379;28;20303;-66
2020/12/07 05:49:52;;;;;;;25.27;17.87;;;;;;;-144.99;100.00;52505.16;5053975;28;20571;-66
2020/12/07 05:52:25;;;;;;;25.13;16.57;;;;;;;-144.99;100.00;52517.41;5059601;28;20219;-66
2020/12/07 05:54:55;;;;;;;23.73;15.73;;;;;;;-144.99;100.00;52476.63;5062324;28;20621;-67
2020/12/07 05:57:26;;;;;;;27.83;18.67;;;;;;;-144.99;100.00;52492.94;5053442;28;20248;-67
2020/12/07 05:59:55;;;;;;;25.87;17.83;;;;;;;-144.99;100.00;52509.25;5055347;28;20201;-66
2020/12/07 06:02:22;;;;;;;26.97;16.67;;;;;;;-144.99;100.00;52480.72;5058603;28;20197;-68
2020/12/07 06:04:51;;;;;;;25.50;17.77;;;;;;;-144.99;100.00;52501.09;5057446;28;20256;-67
2020/12/07 06:07:23;;;;;;;19.23;14.57;;;;;;;-144.99;100.00;52456.25;5057911;28;20204;-67
2020/12/07 06:09:50;;;;;;;24.23;16.80;;;;;;;-144.99;100.00;52501.09;5058923;28;20202;-70
2020/12/07 06:12:21;;;;;;;23.50;15.53;;;;;;;-144.99;100.00;52511.28;5056398;28;20291;-67
2020/12/07 06:14:49;;;;;;;26.87;17.63;;;;;;;-144.99;100.00;52460.31;5058201;28;20217;-69
2020/12/07 06:17:23;;;;;;;20.33;12.20;;;;;;;-144.99;100.00;52488.84;5067215;28;20252;-67
2020/12/07 06:19:52;;;;;;;19.60;14.97;;;;;;;-144.99;100.00;52484.78;5049790;28;20202;-66
2020/12/07 06:22:21;;;;;;;20.10;13.50;;;;;;;-144.99;100.00;52501.09;5049159;28;20423;-67
2020/12/07 06:24:49;;;;;;;18.77;11.67;;;;;;;-144.99;100.00;52456.25;5055991;28;20535;-67
2020/12/07 06:27:16;;;;;;;31.40;18.17;;;;;;;-144.99;100.00;52460.31;5059287;28;20654;-67
2020/12/07 06:29:58;;;;;;;26.70;17.37;;;;;;;-144.99;100.00;52492.94;5058522;28;20212;-67
2020/12/07 06:32:46;;;;;;;30.93;19.47;;;;;;;-144.99;100.00;52509.25;5049404;28;20213;-66
2020/12/07 06:35:14;;;;;;;19.63;14.63;;;;;;;-144.99;100.00;52464.41;5058348;28;20289;-66
2020/12/07 06:37:48;;;;;;;29.80;18.93;;;;;;;-144.99;100.00;52466.44;5060353;28;20303;-67
2020/12/07 06:40:17;;;;;;;38.57;17.90;;;;;;;-144.99;100.00;52527.59;5059598;28;20283;-67
2020/12/07 06:42:45;;;;;;;30.83;20.17;;;;;;;-144.99;100.00;52497.00;5057325;28;20283;-66
2020/12/07 06:45:22;;;;;;;26.83;18.07;;;;;;;-144.99;100.00;52450.13;5058353;28;20275;-66
2020/12/07 06:47:49;;;;;;;24.50;16.57;;;;;;;-144.99;100.00;52448.09;5063715;28;20225;-66
2020/12/07 06:50:19;;;;;;;25.60;18.80;;;;;;;-144.99;100.00;52464.41;5057957;28;20224;-67
2020/12/07 06:52:46;;;;;;;28.00;19.83;;;;;;;-144.99;100.00;52466.44;5062005;28;20755;-66
2020/12/07 06:55:16;;;;;;;27.47;18.40;;;;;;;-144.99;100.00;52488.84;5067880;28;20203;-68
2020/12/07 06:57:44;;;;;;;29.27;17.57;;;;;;;-144.99;100.00;52529.63;5059282;28;20235;-67
2020/12/07 07:00:14;;;;;;;35.43;20.87;;;;;;;-144.99;100.00;52468.47;5056070;28;20205;-67
2020/12/07 07:02:41;;;;;;;36.47;20.33;;;;;;;-144.99;100.00;52492.94;5053549;28;20648;-67
2020/12/07 07:05:09;;;;;;;40.40;23.23;;;;;;;-144.99;100.00;52492.94;5063577;28;20226;-67
2020/12/07 07:07:36;;;;;;;30.00;19.27;;;;;;;-144.99;100.00;52452.16;5054436;28;20486;-68
2020/12/07 07:10:04;;;;;;;23.40;16.77;;;;;;;-144.99;100.00;52472.56;5058502;28;20202;-68
2020/12/07 07:12:30;;;;;;;26.20;16.87;;;;;;;-144.99;100.00;52480.72;5056714;28;20196;-67
2020/12/07 07:14:57;;;;;;;20.43;14.07;;;;;;;-144.99;100.00;52476.63;5052391;28;20280;-68
2020/12/07 07:17:25;;;;;;;19.57;13.90;;;;;;;-144.99;100.00;52492.94;5064709;28;20209;-68
2020/12/07 07:19:51;;;;;;;26.23;14.90;;;;;;;-144.99;100.00;52497.00;5051669;28;20248;-67
2020/12/07 07:22:18;;;;;;;18.80;12.93;;;;;;;-144.99;100.00;52492.94;5048554;28;20281;-68
2020/12/07 07:24:59;;;;;;;17.67;12.07;;;;;;;-144.99;100.00;52492.94;5054982;28;20710;-66
2020/12/07 07:30:10;;;;;;;18.93;11.10;;;;;;;-144.99;100.00;52501.09;5058604;28;20205;-69
2020/12/07 07:32:40;;;;;;;18.10;12.43;;;;;;;-144.99;100.00;52460.31;5058282;28;20224;-66
2020/12/07 07:35:06;;;;;;;19.67;13.27;;;;;;;-144.99;100.00;52450.13;5057987;28;20202;-67
2020/12/07 07:37:32;;;;;;;20.10;11.50;;;;;;;-144.99;100.00;52476.63;5057904;28;20235;-68
2020/12/07 07:40:01;;;;;;;20.27;12.47;;;;;;;-144.99;100.00;52509.25;5059292;28;20672;-68
2020/12/07 07:42:29;;;;;;;20.33;14.80;;;;;;;-144.99;100.00;52444.03;5055607;28;20193;-68
2020/12/07 07:44:56;;;;;;;16.00;13.07;;;;;;;-144.99;100.00;52470.50;5054990;28;20703;-68
2020/12/07 07:47:28;;;;;;;19.77;12.40;;;;;;;-144.99;100.00;52494.97;5063364;28;20269;-68
2020/12/07 08:15:46;;;;;;;17.87;12.60;;;;;;;-144.99;100.00;52492.94;5014433;28;20846;-69
2020/12/07 08:18:18;;;;;;;19.00;11.37;;;;;;;-144.99;100.00;52509.25;5052554;28;20240;-68
2020/12/07 08:20:51;;;;;;;14.70;11.50;;;;;;;-144.99;100.00;52462.34;5057564;28;20229;-69
2020/12/07 08:23:28;;;;;;;17.43;12.07;;;;;;;-144.99;100.00;52468.47;5046700;28;20725;-69
2020/12/07 08:25:55;;;;;;;15.33;10.80;;;;;;;-144.99;100.00;52468.47;5060292;28;20240;-68
2020/12/07 08:28:26;;;;;;;19.07;13.60;;;;;;;-144.99;100.00;52456.25;5055985;28;20262;-68
2020/12/07 08:31:05;;;;;;;15.53;11.77;;;;;;;-144.99;100.00;52480.72;5055454;28;20274;-68
2020/12/07 08:33:32;;;;;;;16.87;11.40;;;;;;;-144.99;100.00;52460.31;5046276;28;20289;-69
2020/12/07 08:35:59;;;;;;;18.17;11.53;;;;;;;-144.99;100.00;52484.78;5057916;28;20329;-68
2020/12/07 08:38:27;;;;;;;16.20;11.20;;;;;;;-144.99;100.00;52497.00;5061749;28;20399;-67
2020/12/07 08:40:54;;;;;;;18.00;12.50;;;;;;;-144.99;100.00;52499.06;5054057;28;20201;-69
2020/12/07 08:43:21;;;;;;;20.10;12.53;;;;;;;-144.99;100.00;52452.16;5057376;28;20570;-68
2020/12/07 08:45:48;;;;;;;17.43;11.80;;;;;;;-144.99;100.00;52476.63;5053674;28;20218;-66
2020/12/07 08:48:14;;;;;;;16.63;12.00;;;;;;;-144.99;100.00;52441.97;5064442;28;20201;-67
2020/12/07 08:50:40;;;;;;;21.17;13.70;;;;;;;-144.99;100.00;52497.00;5052371;28;20541;-67
2020/12/07 08:53:06;;;;;;;20.40;12.87;;;;;;;-144.99;100.00;52501.09;5060161;28;20748;-67
2020/12/07 08:55:32;;;;;;;20.57;13.50;;;;;;;-144.99;100.00;52474.59;5061671;28;20708;-68
2020/12/07 08:57:58;;;;;;;24.50;14.87;;;;;;;-144.99;100.00;52507.19;5096712;22;20588;-73
2020/12/07 09:00:25;;;;;;;21.80;15.10;;;;;;;-144.99;100.00;52484.78;5094008;28;20230;-72
2020/12/07 09:02:52;;;;;;;18.90;13.47;;;;;;;-144.99;100.00;52492.94;5106113;28;20196;-73
2020/12/07 09:05:18;;;;;;;17.47;12.53;;;;;;;-144.99;100.00;52509.25;5089294;28;20238;-72
2020/12/07 09:07:44;;;;;;;17.63;13.03;;;;;;;-144.99;100.00;52466.44;5096587;28;20269;-73
2020/12/07 09:10:10;;;;;;;17.07;12.30;;;;;;;-144.99;100.00;52439.94;5102828;28;20212;-73
2020/12/07 09:12:36;;;;;;;18.03;12.50;;;;;;;-144.99;100.00;52494.97;5103991;28;20654;-73
2020/12/07 09:15:03;;;;;;;19.43;12.83;;;;;;;-144.99;100.00;52472.56;5102535;28;20718;-73
2020/12/07 09:17:29;;;;;;;17.53;13.30;;;;;;;-144.99;100.00;52480.72;5106421;28;20219;-74
2020/12/07 09:19:56;;;;;;;18.50;14.43;;;;;;;-144.99;100.00;52456.25;5107606;28;20261;-72
2020/12/07 09:22:22;;;;;;;20.37;15.30;;;;;;;-144.99;100.00;52484.78;5108404;28;20230;-74
2020/12/07 09:24:49;;;;;;;20.07;15.63;;;;;;;-144.99;100.00;52472.56;5099311;28;20321;-72
2020/12/07 09:27:15;;;;;;;20.77;13.73;;;;;;;-144.99;100.00;52499.06;5094205;28;20219;-73
2020/12/07 09:29:41;;;;;;;21.03;17.87;;;;;;;-144.99;100.00;52486.81;5095372;28;20634;-73
2020/12/07 09:32:07;;;;;;;18.77;16.17;;;;;;;-144.99;100.00;52478.66;5096168;28;20265;-73
2020/12/07 09:34:33;;;;;;;22.73;14.87;;;;;;;-144.99;100.00;52511.28;5099053;28;20196;-73
2020/12/07 09:37:00;;;;;;;19.97;15.33;;;;;;;-144.99;100.00;52468.47;5111818;28;20470;-74
2020/12/07 09:39:27;;;;;;;22.03;15.80;;;;;;;-144.99;100.00;52464.41;5096144;28;20347;-74
2020/12/07 09:41:53;;;;;;;18.27;14.03;;;;;;;-144.99;100.00;52521.47;5095321;28;20203;-73
2020/12/07 09:44:19;;;;;;;24.87;17.93;;;;;;;-144.99;100.00;52484.78;5095616;28;20231;-75
2020/12/07 09:46:46;;;;;;;26.67;17.87;;;;;;;-144.99;100.00;52488.84;5096755;28;20224;-75
2020/12/07 09:49:12;;;;;;;27.67;16.90;;;;;;;-144.99;100.00;52456.25;5095452;28;20227;-72
2020/12/07 09:51:38;;;;;;;26.30;17.17;;;;;;;-144.99;100.00;52488.84;5094238;28;20196;-72
2020/12/07 09:54:05;;;;;;;23.87;18.43;;;;;;;-144.99;100.00;52482.75;5095249;28;20204;-72
2020/12/07 09:56:31;;;;;;;28.43;19.67;;;;;;;-144.99;100.00;52511.28;5094340;28;20489;-72
2020/12/07 09:58:58;;;;;;;22.13;17.23;;;;;;;-144.99;100.00;52501.09;5094434;28;20622;-71
2020/12/07 10:01:24;;;;;;;27.10;18.47;;;;;;;-144.99;100.00;52509.25;5094311;28;20291;-72
2020/12/07 10:03:50;;;;;;;21.57;17.07;;;;;;;-144.99;100.00;52444.03;5094238;28;20196;-71
2020/12/07 10:06:16;;;;;;;26.83;20.93;;;;;;;-144.99;100.00;52456.25;5093483;28;20204;-72
2020/12/07 10:08:42;;;;;;;24.90;20.57;;;;;;;-144.99;100.00;52501.09;5097501;28;20261;-73
2020/12/07 10:11:13;;;;;;;27.20;21.90;;;;;;;-144.99;100.00;52474.59;5116392;28;20208;-72
2020/12/07 10:13:39;;;;;;;26.20;18.97;;;;;;;-144.99;100.00;52476.63;5098833;28;20600;-72
2020/12/07 10:16:05;;;;;;;23.50;18.93;;;;;;;-144.99;100.00;52464.41;5095745;28;20207;-72
2020/12/07 10:18:31;;;;;;;23.87;19.77;;;;;;;-144.99;100.00;52501.09;5096426;28;20285;-72
2020/12/07 10:20:58;;;;;;;21.63;18.93;;;;;;;-144.99;100.00;52476.63;5099287;28;20203;-72
2020/12/07 10:23:24;;;;;;;25.50;21.80;;;;;;;-144.99;100.00;52472.56;5100062;28;20208;-73
2020/12/07 10:25:50;;;;;;;25.17;20.57;;;;;;;-144.99;100.00;52472.56;5094429;28;20709;-75
2020/12/07 10:28:18;;;;;;;28.37;20.23;;;;;;;-144.99;100.00;52550.00;5099490;28;20216;-72
2020/12/07 10:30:44;;;;;;;24.50;16.53;;;;;;;-144.99;100.00;52458.28;5093852;28;20223;-73
2020/12/07 10:33:10;;;;;;;26.13;20.37;;;;;;;-144.99;100.00;52503.13;5092242;28;20196;-75
2020/12/07 10:35:37;;;;;;;29.07;19.97;;;;;;;-144.99;100.00;52460.31;5094020;28;20208;-73
2020/12/07 10:38:03;;;;;;;25.00;19.77;;;;;;;-144.99;100.00;52497.00;5097107;28;20215;-72
2020/12/07 10:40:29;;;;;;;23.13;19.33;;;;;;;-144.99;100.00;52501.09;5100264;28;20306;-72
2020/12/07 10:42:55;;;;;;;26.33;20.10;;;;;;;-144.99;100.00;52488.84;5096416;28;20206;-72
2020/12/07 10:45:22;;;;;;;23.70;20.33;;;;;;;-144.99;100.00;52484.78;5096784;28;20377;-72
2020/12/07 10:47:50;;;;;;;35.73;29.30;;;;;;;-144.99;100.00;52525.56;5096846;28;20220;-72
2020/12/07 10:50:17;;;;;;;37.40;28.90;;;;;;;-144.99;100.00;52476.63;5094346;28;20204;-74
2020/12/07 10:52:43;;;;;;;38.13;29.83;;;;;;;-144.99;100.00;52468.47;5094415;28;20200;-73
2020/12/07 10:55:09;;;;;;;35.27;26.90;;;;;;;-144.99;100.00;52517.41;5099042;28;20211;-72
2020/12/07 10:57:35;;;;;;;35.13;28.33;;;;;;;-144.99;100.00;52501.09;5105439;28;20224;-73
2020/12/07 11:00:02;;;;;;;44.37;27.77;;;;;;;-144.99;100.00;52497.00;5111400;28;20204;-72
2020/12/07 11:02:29;;;;;;;41.00;31.73;;;;;;;-144.99;100.00;52505.16;5101117;28;20270;-72
2020/12/07 11:04:55;;;;;;;31.67;24.67;;;;;;;-144.99;100.00;52488.84;5094845;28;20436;-72
2020/12/07 11:07:23;;;;;;;36.67;23.20;;;;;;;-144.99;100.00;52558.16;5093981;28;20225;-73
2020/12/07 11:09:49;;;;;;;32.70;22.27;;;;;;;-144.99;100.00;52521.47;5088781;28;20729;-73
2020/12/07 11:12:19;;;;;;;25.23;20.10;;;;;;;-144.99;100.00;52560.19;5097633;28;20274;-72
2020/12/07 11:14:45;;;;;;;33.90;21.63;;;;;;;-144.99;100.00;52484.78;5092617;28;20199;-74
2020/12/07 11:17:12;;;;;;;21.73;13.80;;;;;;;-144.99;100.00;52509.25;5094020;28;20251;-72
2020/12/07 11:19:42;;;;;;;25.97;16.20;;;;;;;-144.99;100.00;52494.97;5094538;28;20676;-72
2020/12/07 11:22:08;;;;;;;20.50;13.90;;;;;;;-144.99;100.00;52480.72;5093602;28;21007;-72
2020/12/07 11:24:34;;;;;;;19.03;13.97;;;;;;;-144.99;100.00;52484.78;5093184;28;20769;-72
2020/12/07 11:27:01;;;;;;;22.60;13.83;;;;;;;-144.99;100.00;52474.59;5093393;28;20716;-72